首页
METAR-TAF:

METAR-TAF

机场 :

Burlington-Alamance Regional Airport

伯灵顿, 北卡罗来纳州, 美国

纬度: 36-02-52N, 经度: 079-28-26W, 海拔: 188米

当前天气观测

该预报发布于19分钟前的20:54 UTC
风速9节,风向,有时为15节阵风
温度 12°C
湿度 50%
气压 1015 hPa
能見度: 16.1公里
多云层高于4100英尺

METAR: KBUY 172054Z AUTO 36009G15KT 10SM BKN041 12/02 A2998 RMK AO2 SLP152 T01220022 56020 $

时间: 16:13 (21:13 UTC)


TAF: 丢失

超过4000个机场的气象观测和天气预报(METAR&TAF报告)。

可查询的气象台以黄色和红色小点在地图上表示。

将鼠标移到小点上方,可查看气象台名称。

然后点击查看天气观测和预报。

如需切换地图:点击带黑十字的绿色按钮放大地图;点击带横线的绿色按钮缩小地图;或者点击绿色箭头查看邻近地区的地图。


METAR-TAF: